sensor_id;sensor_type;location;lat;lon;timestamp;pressure;altitude;pressure_sealevel;temperature;humidity
84924;BME280;75286;52.218;5.180;2024-02-23T00:00:37;98647.41;;;5.64;100.00
84924;BME280;75286;52.218;5.180;2024-02-23T00:03:02;98648.19;;;5.64;100.00
84924;BME280;75286;52.218;5.180;2024-02-23T00:05:31;98638.47;;;5.73;100.00
84924;BME280;75286;52.218;5.180;2024-02-23T00:07:56;98650.50;;;5.79;100.00
84924;BME280;75286;52.218;5.180;2024-02-23T00:10:22;98656.56;;;5.85;100.00
84924;BME280;75286;52.218;5.180;2024-02-23T00:12:47;98656.97;;;5.88;100.00
84924;BME280;75286;52.218;5.180;2024-02-23T00:15:13;98671.00;;;5.92;99.12
84924;BME280;75286;52.218;5.180;2024-02-23T00:17:38;98665.06;;;5.92;99.47
84924;BME280;75286;52.218;5.180;2024-02-23T00:20:05;98668.81;;;5.89;99.38
84924;BME280;75286;52.218;5.180;2024-02-23T00:22:32;98683.78;;;5.99;98.52
84924;BME280;75286;52.218;5.180;2024-02-23T00:24:59;98677.06;;;5.98;98.68
84924;BME280;75286;52.218;5.180;2024-02-23T00:27:24;98675.69;;;5.95;98.70
84924;BME280;75286;52.218;5.180;2024-02-23T00:29:49;98682.38;;;6.03;98.40
84924;BME280;75286;52.218;5.180;2024-02-23T00:32:15;98679.00;;;6.09;98.30
84924;BME280;75286;52.218;5.180;2024-02-23T00:34:40;98687.25;;;6.11;97.89
84924;BME280;75286;52.218;5.180;2024-02-23T00:37:05;98685.72;;;6.03;98.30
84924;BME280;75286;52.218;5.180;2024-02-23T00:39:33;98675.06;;;6.00;98.03
84924;BME280;75286;52.218;5.180;2024-02-23T00:41:58;98694.41;;;6.02;97.80
84924;BME280;75286;52.218;5.180;2024-02-23T00:44:23;98687.91;;;6.00;97.63
84924;BME280;75286;52.218;5.180;2024-02-23T00:46:49;98692.00;;;6.07;97.49
84924;BME280;75286;52.218;5.180;2024-02-23T00:49:14;98699.31;;;6.10;98.25
84924;BME280;75286;52.218;5.180;2024-02-23T00:51:40;98697.78;;;6.03;98.09
84924;BME280;75286;52.218;5.180;2024-02-23T00:54:05;98710.75;;;6.08;97.79
84924;BME280;75286;52.218;5.180;2024-02-23T00:56:33;98719.06;;;6.10;98.13
84924;BME280;75286;52.218;5.180;2024-02-23T00:58:58;98714.75;;;6.04;97.43
84924;BME280;75286;52.218;5.180;2024-02-23T01:01:24;98720.41;;;6.12;97.59
84924;BME280;75286;52.218;5.180;2024-02-23T01:03:51;98725.97;;;6.09;97.53
84924;BME280;75286;52.218;5.180;2024-02-23T01:06:17;98721.63;;;6.10;96.84
84924;BME280;75286;52.218;5.180;2024-02-23T01:08:42;98730.47;;;6.14;96.91
84924;BME280;75286;52.218;5.180;2024-02-23T01:11:08;98734.81;;;6.13;96.67
84924;BME280;75286;52.218;5.180;2024-02-23T01:13:33;98741.09;;;6.17;96.94
84924;BME280;75286;52.218;5.180;2024-02-23T01:15:59;98741.91;;;6.11;96.70
84924;BME280;75286;52.218;5.180;2024-02-23T01:18:24;98744.66;;;6.16;96.41
84924;BME280;75286;52.218;5.180;2024-02-23T01:20:49;98746.66;;;6.14;95.95
84924;BME280;75286;52.218;5.180;2024-02-23T01:23:15;98754.56;;;6.06;96.26
84924;BME280;75286;52.218;5.180;2024-02-23T01:25:40;98753.38;;;6.15;96.38
84924;BME280;75286;52.218;5.180;2024-02-23T01:28:06;98762.66;;;6.10;96.00
84924;BME280;75286;52.218;5.180;2024-02-23T01:30:31;98758.53;;;6.09;96.85
84924;BME280;75286;52.218;5.180;2024-02-23T01:32:56;98785.75;;;6.10;96.67
84924;BME280;75286;52.218;5.180;2024-02-23T01:35:22;98775.91;;;6.00;95.36
84924;BME280;75286;52.218;5.180;2024-02-23T01:37:47;98774.31;;;5.99;96.35
84924;BME280;75286;52.218;5.180;2024-02-23T01:40:13;98780.66;;;5.97;94.95
84924;BME280;75286;52.218;5.180;2024-02-23T01:42:38;98785.38;;;5.93;95.12
84924;BME280;75286;52.218;5.180;2024-02-23T01:45:04;98786.00;;;5.89;95.65
84924;BME280;75286;52.218;5.180;2024-02-23T01:47:30;98778.28;;;5.82;94.53
84924;BME280;75286;52.218;5.180;2024-02-23T01:49:57;98784.03;;;5.77;93.82
84924;BME280;75286;52.218;5.180;2024-02-23T01:52:24;98785.00;;;5.83;94.56
84924;BME280;75286;52.218;5.180;2024-02-23T01:54:50;98783.47;;;5.75;94.63
84924;BME280;75286;52.218;5.180;2024-02-23T01:57:16;98789.94;;;5.78;94.75
84924;BME280;75286;52.218;5.180;2024-02-23T01:59:41;98798.63;;;5.77;93.68
84924;BME280;75286;52.218;5.180;2024-02-23T02:02:07;98797.66;;;5.71;92.86
84924;BME280;75286;52.218;5.180;2024-02-23T02:04:32;98795.88;;;5.65;92.92
84924;BME280;75286;52.218;5.180;2024-02-23T02:06:59;98798.84;;;5.69;92.93
84924;BME280;75286;52.218;5.180;2024-02-23T02:09:26;98814.25;;;5.69;93.72
84924;BME280;75286;52.218;5.180;2024-02-23T02:11:51;98798.06;;;5.62;92.73
84924;BME280;75286;52.218;5.180;2024-02-23T02:14:17;98815.03;;;5.50;93.38
84924;BME280;75286;52.218;5.180;2024-02-23T02:16:43;98812.28;;;5.38;93.34
84924;BME280;75286;52.218;5.180;2024-02-23T02:19:12;98805.56;;;5.37;94.02
84924;BME280;75286;52.218;5.180;2024-02-23T02:21:38;98793.94;;;5.28;95.23
84924;BME280;75286;52.218;5.180;2024-02-23T02:24:04;98814.03;;;5.37;94.96
84924;BME280;75286;52.218;5.180;2024-02-23T02:26:30;98810.69;;;5.37;95.15
84924;BME280;75286;52.218;5.180;2024-02-23T02:28:56;98817.22;;;5.33;95.97
84924;BME280;75286;52.218;5.180;2024-02-23T02:31:21;98821.53;;;5.32;96.46
84924;BME280;75286;52.218;5.180;2024-02-23T02:33:46;98818.41;;;5.24;96.98
84924;BME280;75286;52.218;5.180;2024-02-23T02:36:12;98813.28;;;5.24;97.67
84924;BME280;75286;52.218;5.180;2024-02-23T02:38:38;98820.97;;;5.24;98.24
84924;BME280;75286;52.218;5.180;2024-02-23T02:41:04;98816.22;;;5.21;98.36
84924;BME280;75286;52.218;5.180;2024-02-23T02:43:30;98828.03;;;5.22;98.26
84924;BME280;75286;52.218;5.180;2024-02-23T02:45:55;98819.56;;;5.15;98.29
84924;BME280;75286;52.218;5.180;2024-02-23T02:48:22;98829.03;;;5.21;98.52
84924;BME280;75286;52.218;5.180;2024-02-23T02:50:51;98830.22;;;5.18;99.22
84924;BME280;75286;52.218;5.180;2024-02-23T02:53:17;98839.28;;;5.21;99.40
84924;BME280;75286;52.218;5.180;2024-02-23T02:59:34;98836.91;;;5.26;99.36
84924;BME280;75286;52.218;5.180;2024-02-23T03:02:00;98839.88;;;5.23;99.45
84924;BME280;75286;52.218;5.180;2024-02-23T03:04:25;98849.72;;;5.26;99.87
84924;BME280;75286;52.218;5.180;2024-02-23T03:06:50;98836.53;;;5.22;99.34
84924;BME280;75286;52.218;5.180;2024-02-23T03:09:16;98844.22;;;5.29;99.88
84924;BME280;75286;52.218;5.180;2024-02-23T03:11:41;98844.03;;;5.24;99.48
84924;BME280;75286;52.218;5.180;2024-02-23T03:14:06;98849.72;;;5.26;99.36
84924;BME280;75286;52.218;5.180;2024-02-23T03:16:32;98849.72;;;5.26;99.30
84924;BME280;75286;52.218;5.180;2024-02-23T03:18:59;98845.56;;;5.25;99.14
84924;BME280;75286;52.218;5.180;2024-02-23T03:21:24;98844.78;;;5.24;99.16
84924;BME280;75286;52.218;5.180;2024-02-23T03:23:50;98848.94;;;5.25;99.07
84924;BME280;75286;52.218;5.180;2024-02-23T03:26:18;98848.53;;;5.22;98.70
84924;BME280;75286;52.218;5.180;2024-02-23T03:28:44;98858.97;;;5.20;99.09
84924;BME280;75286;52.218;5.180;2024-02-23T03:31:09;98855.63;;;5.20;98.76
84924;BME280;75286;52.218;5.180;2024-02-23T03:33:34;98868.25;;;5.21;99.14
84924;BME280;75286;52.218;5.180;2024-02-23T03:36:03;98864.50;;;5.17;98.87
84924;BME280;75286;52.218;5.180;2024-02-23T03:38:28;98861.31;;;5.09;99.34
84924;BME280;75286;52.218;5.180;2024-02-23T03:40:55;98875.53;;;5.18;98.27
84924;BME280;75286;52.218;5.180;2024-02-23T03:43:20;98874.72;;;5.11;98.87
84924;BME280;75286;52.218;5.180;2024-02-23T03:45:46;98881.22;;;5.13;98.56
84924;BME280;75286;52.218;5.180;2024-02-23T03:48:11;98876.69;;;5.09;99.10
84924;BME280;75286;52.218;5.180;2024-02-23T03:50:37;98876.69;;;5.02;98.17
84924;BME280;75286;52.218;5.180;2024-02-23T03:53:02;98869.56;;;4.97;98.50
84924;BME280;75286;52.218;5.180;2024-02-23T03:55:29;98875.28;;;4.93;99.04
84924;BME280;75286;52.218;5.180;2024-02-23T03:57:54;98881.78;;;4.95;98.58
84924;BME280;75286;52.218;5.180;2024-02-23T04:00:19;98881.78;;;4.95;98.76
84924;BME280;75286;52.218;5.180;2024-02-23T04:02:47;98886.13;;;4.95;98.76
84924;BME280;75286;52.218;5.180;2024-02-23T04:05:12;98877.44;;;4.89;99.27
84924;BME280;75286;52.218;5.180;2024-02-23T04:07:37;98881.00;;;4.88;99.22
84924;BME280;75286;52.218;5.180;2024-02-23T04:10:03;98878.03;;;4.91;99.57
84924;BME280;75286;52.218;5.180;2024-02-23T04:12:29;98889.66;;;4.87;98.89
84924;BME280;75286;52.218;5.180;2024-02-23T04:14:56;98888.66;;;4.82;99.48
84924;BME280;75286;52.218;5.180;2024-02-23T04:17:21;98895.13;;;4.84;99.49
84924;BME280;75286;52.218;5.180;2024-02-23T04:19:47;98914.63;;;4.79;99.70
84924;BME280;75286;52.218;5.180;2024-02-23T04:22:12;98901.78;;;4.72;99.82
84924;BME280;75286;52.218;5.180;2024-02-23T04:24:38;98906.34;;;4.77;99.80
84924;BME280;75286;52.218;5.180;2024-02-23T04:27:05;98905.56;;;4.76;99.84
84924;BME280;75286;52.218;5.180;2024-02-23T04:29:30;98914.03;;;4.77;99.89
84924;BME280;75286;52.218;5.180;2024-02-23T04:31:57;98899.03;;;4.74;100.00
84924;BME280;75286;52.218;5.180;2024-02-23T04:34:22;98917.97;;;4.79;100.00
84924;BME280;75286;52.218;5.180;2024-02-23T04:36:48;98916.78;;;4.75;100.00
84924;BME280;75286;52.218;5.180;2024-02-23T04:39:14;98925.25;;;4.76;100.00
84924;BME280;75286;52.218;5.180;2024-02-23T04:41:39;98909.09;;;4.75;100.00
84924;BME280;75286;52.218;5.180;2024-02-23T04:44:04;98913.44;;;4.75;100.00
84924;BME280;75286;52.218;5.180;2024-02-23T04:46:30;98922.09;;;4.74;100.00
84924;BME280;75286;52.218;5.180;2024-02-23T04:48:56;98917.72;;;4.68;100.00
84924;BME280;75286;52.218;5.180;2024-02-23T04:51:21;98921.47;;;4.65;100.00
84924;BME280;75286;52.218;5.180;2024-02-23T04:53:48;98922.88;;;4.74;100.00
84924;BME280;75286;52.218;5.180;2024-02-23T04:56:14;98916.38;;;4.72;100.00
84924;BME280;75286;52.218;5.180;2024-02-23T04:58:39;98924.44;;;4.69;100.00
84924;BME280;75286;52.218;5.180;2024-02-23T05:01:06;98922.13;;;4.80;100.00
84924;BME280;75286;52.218;5.180;2024-02-23T05:03:31;98912.28;;;4.77;100.00
84924;BME280;75286;52.218;5.180;2024-02-23T05:05:57;98912.47;;;4.76;100.00
84924;BME280;75286;52.218;5.180;2024-02-23T05:08:23;98914.22;;;4.75;100.00
84924;BME280;75286;52.218;5.180;2024-02-23T05:10:50;98907.53;;;4.81;100.00
84924;BME280;75286;52.218;5.180;2024-02-23T05:13:16;98907.53;;;4.81;100.00
84924;BME280;75286;52.218;5.180;2024-02-23T05:15:41;98922.94;;;4.87;100.00
84924;BME280;75286;52.218;5.180;2024-02-23T05:18:07;98916.63;;;4.90;100.00
84924;BME280;75286;52.218;5.180;2024-02-23T05:20:32;98914.69;;;4.92;100.00
84924;BME280;75286;52.218;5.180;2024-02-23T05:22:58;98901.66;;;4.87;100.00
84924;BME280;75286;52.218;5.180;2024-02-23T05:25:24;98923.97;;;5.00;100.00
84924;BME280;75286;52.218;5.180;2024-02-23T05:27:53;98909.75;;;4.97;99.62
84924;BME280;75286;52.218;5.180;2024-02-23T05:30:18;98909.94;;;4.95;100.00
84924;BME280;75286;52.218;5.180;2024-02-23T05:32:44;98923.38;;;5.04;100.00
84924;BME280;75286;52.218;5.180;2024-02-23T05:35:09;98915.88;;;5.03;99.92
84924;BME280;75286;52.218;5.180;2024-02-23T05:37:38;98935.03;;;5.07;99.72
84924;BME280;75286;52.218;5.180;2024-02-23T05:40:06;98929.09;;;5.13;99.79
84924;BME280;75286;52.218;5.180;2024-02-23T05:42:36;98919.44;;;5.08;99.50
84924;BME280;75286;52.218;5.180;2024-02-23T05:45:01;98920.44;;;5.14;99.27
84924;BME280;75286;52.218;5.180;2024-02-23T05:47:32;98914.75;;;5.12;99.70
84924;BME280;75286;52.218;5.180;2024-02-23T05:49:57;98922.03;;;5.15;99.34
84924;BME280;75286;52.218;5.180;2024-02-23T05:52:22;98914.56;;;5.20;99.60
84924;BME280;75286;52.218;5.180;2024-02-23T05:54:48;98927.75;;;5.17;98.90
84924;BME280;75286;52.218;5.180;2024-02-23T05:57:13;98916.72;;;5.16;99.32
84924;BME280;75286;52.218;5.180;2024-02-23T05:59:38;98915.13;;;5.15;99.13
84924;BME280;75286;52.218;5.180;2024-02-23T06:02:04;98912.75;;;5.14;98.79
84924;BME280;75286;52.218;5.180;2024-02-23T06:04:29;98919.47;;;5.15;98.87
84924;BME280;75286;52.218;5.180;2024-02-23T06:06:54;98913.56;;;5.14;99.19
84924;BME280;75286;52.218;5.180;2024-02-23T06:09:20;98919.88;;;5.18;98.54
84924;BME280;75286;52.218;5.180;2024-02-23T06:11:46;98915.13;;;5.15;99.25
84924;BME280;75286;52.218;5.180;2024-02-23T06:14:11;98919.69;;;5.20;99.09
84924;BME280;75286;52.218;5.180;2024-02-23T06:16:37;98916.13;;;5.21;99.23
84924;BME280;75286;52.218;5.180;2024-02-23T06:19:02;98922.22;;;5.20;98.90
84924;BME280;75286;52.218;5.180;2024-02-23T06:21:29;98930.72;;;5.20;98.84
84924;BME280;75286;52.218;5.180;2024-02-23T06:23:54;98933.69;;;5.24;99.02
84924;BME280;75286;52.218;5.180;2024-02-23T06:26:20;98927.19;;;5.21;98.85
84924;BME280;75286;52.218;5.180;2024-02-23T06:28:46;98940.78;;;5.22;98.91
84924;BME280;75286;52.218;5.180;2024-02-23T06:31:12;98940.59;;;5.23;98.62
84924;BME280;75286;52.218;5.180;2024-02-23T06:33:37;98943.34;;;5.22;98.17
84924;BME280;75286;52.218;5.180;2024-02-23T06:36:03;98940.19;;;5.26;98.61
84924;BME280;75286;52.218;5.180;2024-02-23T06:38:29;98936.84;;;5.26;98.49
84924;BME280;75286;52.218;5.180;2024-02-23T06:40:54;98941.00;;;5.27;98.33
84924;BME280;75286;52.218;5.180;2024-02-23T06:43:21;98944.94;;;5.29;98.08
84924;BME280;75286;52.218;5.180;2024-02-23T06:45:46;98930.13;;;5.25;98.06
84924;BME280;75286;52.218;5.180;2024-02-23T06:48:12;98930.72;;;5.27;97.79
84924;BME280;75286;52.218;5.180;2024-02-23T06:50:37;98934.06;;;5.21;97.39
84924;BME280;75286;52.218;5.180;2024-02-23T06:53:02;98928.34;;;5.19;96.92
84924;BME280;75286;52.218;5.180;2024-02-23T06:55:31;98927.78;;;5.23;96.65
84924;BME280;75286;52.218;5.180;2024-02-23T06:57:56;98924.81;;;5.20;96.62
84924;BME280;75286;52.218;5.180;2024-02-23T07:00:21;98932.47;;;5.20;97.09
84924;BME280;75286;52.218;5.180;2024-02-23T07:02:47;98937.03;;;5.24;96.49
84924;BME280;75286;52.218;5.180;2024-02-23T07:05:13;98947.88;;;5.26;96.24
84924;BME280;75286;52.218;5.180;2024-02-23T07:07:39;98948.06;;;5.25;95.98
84924;BME280;75286;52.218;5.180;2024-02-23T07:10:06;98939.59;;;5.24;96.26
84924;BME280;75286;52.218;5.180;2024-02-23T07:12:32;98941.00;;;5.27;95.79
84924;BME280;75286;52.218;5.180;2024-02-23T07:14:57;98942.56;;;5.28;96.13
84924;BME280;75286;52.218;5.180;2024-02-23T07:17:23;98932.69;;;5.25;95.17
84924;BME280;75286;52.218;5.180;2024-02-23T07:19:49;98929.56;;;5.29;95.75
84924;BME280;75286;52.218;5.180;2024-02-23T07:22:16;98934.69;;;5.36;95.18
84924;BME280;75286;52.218;5.180;2024-02-23T07:24:44;98943.16;;;5.36;95.94
84924;BME280;75286;52.218;5.180;2024-02-23T07:27:09;98943.59;;;5.40;95.33
84924;BME280;75286;52.218;5.180;2024-02-23T07:29:35;98935.28;;;5.38;94.81
84924;BME280;75286;52.218;5.180;2024-02-23T07:32:00;98939.81;;;5.36;95.17
84924;BME280;75286;52.218;5.180;2024-02-23T07:34:26;98942.59;;;5.48;94.76
84924;BME280;75286;52.218;5.180;2024-02-23T07:36:52;98941.03;;;5.47;94.43
84924;BME280;75286;52.218;5.180;2024-02-23T07:39:17;98938.69;;;5.52;95.18
84924;BME280;75286;52.218;5.180;2024-02-23T07:41:44;98930.19;;;5.45;93.66
84924;BME280;75286;52.218;5.180;2024-02-23T07:44:10;98924.88;;;5.53;93.31
84924;BME280;75286;52.218;5.180;2024-02-23T07:46:42;98930.97;;;5.52;94.13
84924;BME280;75286;52.218;5.180;2024-02-23T07:49:09;98911.84;;;5.54;93.93
84924;BME280;75286;52.218;5.180;2024-02-23T07:51:35;98920.50;;;5.53;93.43
84924;BME280;75286;52.218;5.180;2024-02-23T07:54:00;98907.31;;;5.56;93.90
84924;BME280;75286;52.218;5.180;2024-02-23T07:56:25;98916.78;;;5.56;93.25
84924;BME280;75286;52.218;5.180;2024-02-23T07:58:51;98916.78;;;5.56;93.54
84924;BME280;75286;52.218;5.180;2024-02-23T08:01:16;98899.44;;;5.58;93.33
84924;BME280;75286;52.218;5.180;2024-02-23T08:03:43;98900.78;;;5.54;92.60
84924;BME280;75286;52.218;5.180;2024-02-23T08:06:09;98898.44;;;5.52;94.01
84924;BME280;75286;52.218;5.180;2024-02-23T08:08:35;98898.44;;;5.52;93.63
84924;BME280;75286;52.218;5.180;2024-02-23T08:11:01;98897.47;;;5.47;93.67
84924;BME280;75286;52.218;5.180;2024-02-23T08:13:27;98899.63;;;5.50;93.16
84924;BME280;75286;52.218;5.180;2024-02-23T08:15:53;98910.69;;;5.57;93.57
84924;BME280;75286;52.218;5.180;2024-02-23T08:18:18;98904.16;;;5.61;92.86
84924;BME280;75286;52.218;5.180;2024-02-23T08:20:43;98897.44;;;5.60;93.64
84924;BME280;75286;52.218;5.180;2024-02-23T08:23:09;98893.72;;;5.56;93.21
84924;BME280;75286;52.218;5.180;2024-02-23T08:25:35;98911.47;;;5.51;94.02
84924;BME280;75286;52.218;5.180;2024-02-23T08:28:01;98897.84;;;5.57;94.53
84924;BME280;75286;52.218;5.180;2024-02-23T08:30:26;98899.81;;;5.48;95.25
84924;BME280;75286;52.218;5.180;2024-02-23T08:32:52;98897.06;;;5.50;95.27
84924;BME280;75286;52.218;5.180;2024-02-23T08:35:17;98887.41;;;5.45;96.00
84924;BME280;75286;52.218;5.180;2024-02-23T08:37:43;98899.41;;;5.45;96.84
84924;BME280;75286;52.218;5.180;2024-02-23T08:40:09;98891.34;;;5.41;96.32
84924;BME280;75286;52.218;5.180;2024-02-23T08:42:34;98882.28;;;5.45;96.06
84924;BME280;75286;52.218;5.180;2024-02-23T08:45:00;98895.66;;;5.47;95.77
84924;BME280;75286;52.218;5.180;2024-02-23T08:47:25;98884.03;;;5.45;96.11
84924;BME280;75286;52.218;5.180;2024-02-23T08:49:57;98883.63;;;5.48;96.13
84924;BME280;75286;52.218;5.180;2024-02-23T08:52:22;98899.22;;;5.46;96.10
84924;BME280;75286;52.218;5.180;2024-02-23T08:54:48;98894.88;;;5.40;97.36
84924;BME280;75286;52.218;5.180;2024-02-23T08:57:13;98886.78;;;5.36;97.14
84924;BME280;75286;52.218;5.180;2024-02-23T08:59:42;98896.66;;;5.39;97.71
84924;BME280;75286;52.218;5.180;2024-02-23T09:02:08;98897.25;;;5.35;98.29
84924;BME280;75286;52.218;5.180;2024-02-23T09:04:34;98885.59;;;5.32;99.12
84924;BME280;75286;52.218;5.180;2024-02-23T09:07:01;98892.50;;;5.38;98.72
84924;BME280;75286;52.218;5.180;2024-02-23T09:09:26;98890.94;;;5.44;98.33
84924;BME280;75286;52.218;5.180;2024-02-23T09:11:51;98896.66;;;5.39;99.00
84924;BME280;75286;52.218;5.180;2024-02-23T09:14:17;98895.88;;;5.46;98.95
84924;BME280;75286;52.218;5.180;2024-02-23T09:16:42;98895.28;;;5.44;98.52
84924;BME280;75286;52.218;5.180;2024-02-23T09:19:08;98901.19;;;5.37;99.03
84924;BME280;75286;52.218;5.180;2024-02-23T09:21:33;98903.94;;;5.43;99.26
84924;BME280;75286;52.218;5.180;2024-02-23T09:23:58;98906.34;;;5.51;99.27
84924;BME280;75286;52.218;5.180;2024-02-23T09:26:24;98888.78;;;5.41;99.27
84924;BME280;75286;52.218;5.180;2024-02-23T09:28:49;98907.28;;;5.43;99.81
84924;BME280;75286;52.218;5.180;2024-02-23T09:31:15;98909.88;;;5.43;100.00
84924;BME280;75286;52.218;5.180;2024-02-23T09:33:40;98919.75;;;5.46;100.00
84924;BME280;75286;52.218;5.180;2024-02-23T09:36:06;98905.72;;;5.49;99.81
84924;BME280;75286;52.218;5.180;2024-02-23T09:38:31;98910.84;;;5.49;100.00
84924;BME280;75286;52.218;5.180;2024-02-23T09:40:58;98912.25;;;5.51;100.00
84924;BME280;75286;52.218;5.180;2024-02-23T09:43:28;98910.06;;;5.48;99.87
84924;BME280;75286;52.218;5.180;2024-02-23T09:45:54;98922.69;;;5.56;99.67
84924;BME280;75286;52.218;5.180;2024-02-23T09:48:21;98912.66;;;5.68;99.21
84924;BME280;75286;52.218;5.180;2024-02-23T09:50:49;98913.81;;;5.65;98.94
84924;BME280;75286;52.218;5.180;2024-02-23T09:53:16;98910.88;;;5.75;98.71
84924;BME280;75286;52.218;5.180;2024-02-23T09:55:43;98910.28;;;5.86;98.70
84924;BME280;75286;52.218;5.180;2024-02-23T09:58:12;98906.97;;;5.92;98.56
84924;BME280;75286;52.218;5.180;2024-02-23T10:00:38;98925.91;;;5.98;97.96
84924;BME280;75286;52.218;5.180;2024-02-23T10:03:04;98920.53;;;6.06;97.92
84924;BME280;75286;52.218;5.180;2024-02-23T10:05:30;98927.06;;;6.08;97.66
84924;BME280;75286;52.218;5.180;2024-02-23T10:07:57;98935.75;;;6.14;97.47
84924;BME280;75286;52.218;5.180;2024-02-23T10:10:32;98926.47;;;6.06;98.06
84924;BME280;75286;52.218;5.180;2024-02-23T10:12:59;98938.13;;;6.09;97.67
84924;BME280;75286;52.218;5.180;2024-02-23T10:15:25;98928.66;;;6.09;98.05
84924;BME280;75286;52.218;5.180;2024-02-23T10:17:51;98934.97;;;6.07;97.11
84924;BME280;75286;52.218;5.180;2024-02-23T10:20:17;98943.06;;;6.04;97.27
84924;BME280;75286;52.218;5.180;2024-02-23T10:22:42;98925.28;;;6.02;97.79
84924;BME280;75286;52.218;5.180;2024-02-23T10:25:09;98933.00;;;6.02;97.33
84924;BME280;75286;52.218;5.180;2024-02-23T10:27:34;98930.44;;;6.02;97.34
84924;BME280;75286;52.218;5.180;2024-02-23T10:29:59;98931.41;;;6.08;96.99
84924;BME280;75286;52.218;5.180;2024-02-23T10:32:27;98938.31;;;6.07;97.59
84924;BME280;75286;52.218;5.180;2024-02-23T10:34:55;98960.41;;;6.15;96.44
84924;BME280;75286;52.218;5.180;2024-02-23T10:37:24;98944.03;;;6.16;96.75
84924;BME280;75286;52.218;5.180;2024-02-23T10:39:53;98961.59;;;6.19;96.81
84924;BME280;75286;52.218;5.180;2024-02-23T10:42:23;98950.16;;;6.22;96.72
84924;BME280;75286;52.218;5.180;2024-02-23T10:44:50;98962.75;;;6.30;96.82
84924;BME280;75286;52.218;5.180;2024-02-23T10:47:16;98957.81;;;6.28;97.03
84924;BME280;75286;52.218;5.180;2024-02-23T10:49:42;98958.78;;;6.34;97.06
84924;BME280;75286;52.218;5.180;2024-02-23T10:52:11;98973.22;;;6.41;96.34
84924;BME280;75286;52.218;5.180;2024-02-23T10:54:39;98963.72;;;6.48;96.44
84924;BME280;75286;52.218;5.180;2024-02-23T10:57:04;98968.84;;;6.55;96.41
84924;BME280;75286;52.218;5.180;2024-02-23T10:59:30;98977.72;;;6.59;95.56
84924;BME280;75286;52.218;5.180;2024-02-23T11:01:56;98974.16;;;6.67;95.38
84924;BME280;75286;52.218;5.180;2024-02-23T11:04:25;98977.72;;;6.66;95.27
84924;BME280;75286;52.218;5.180;2024-02-23T11:06:52;98981.06;;;6.66;95.11
84924;BME280;75286;52.218;5.180;2024-02-23T11:09:21;98972.75;;;6.71;95.31
84924;BME280;75286;52.218;5.180;2024-02-23T11:11:57;98978.06;;;6.82;94.96
84924;BME280;75286;52.218;5.180;2024-02-23T11:14:34;99001.16;;;6.89;94.67
84924;BME280;75286;52.218;5.180;2024-02-23T11:17:01;98981.19;;;6.91;93.33
84924;BME280;75286;52.218;5.180;2024-02-23T11:19:34;98991.47;;;6.91;94.08
84924;BME280;75286;52.218;5.180;2024-02-23T11:22:03;98975.63;;;6.94;93.93
84924;BME280;75286;52.218;5.180;2024-02-23T11:24:29;98985.50;;;6.97;92.81
84924;BME280;75286;52.218;5.180;2024-02-23T11:27:01;98984.50;;;7.04;93.53
84924;BME280;75286;52.218;5.180;2024-02-23T11:29:36;98993.59;;;7.07;93.11
84924;BME280;75286;52.218;5.180;2024-02-23T11:32:20;98994.16;;;7.09;93.94
84924;BME280;75286;52.218;5.180;2024-02-23T11:34:55;99009.19;;;7.12;92.62
84924;BME280;75286;52.218;5.180;2024-02-23T11:37:22;99006.31;;;7.33;92.83
84924;BME280;75286;52.218;5.180;2024-02-23T11:39:48;98989.03;;;7.47;90.91
84924;BME280;75286;52.218;5.180;2024-02-23T11:42:13;98992.59;;;7.46;90.39
84924;BME280;75286;52.218;5.180;2024-02-23T11:44:39;99004.50;;;7.40;90.36
84924;BME280;75286;52.218;5.180;2024-02-23T11:47:07;99010.09;;;7.31;90.35
84924;BME280;75286;52.218;5.180;2024-02-23T11:49:32;99017.81;;;7.31;90.18
84924;BME280;75286;52.218;5.180;2024-02-23T11:51:58;99016.22;;;7.30;90.44
84924;BME280;75286;52.218;5.180;2024-02-23T11:54:23;99020.38;;;7.31;90.36
84924;BME280;75286;52.218;5.180;2024-02-23T11:56:49;99030.25;;;7.27;90.42
84924;BME280;75286;52.218;5.180;2024-02-23T11:59:21;99036.03;;;7.23;89.99
84924;BME280;75286;52.218;5.180;2024-02-23T12:01:47;99015.88;;;7.20;90.48
84924;BME280;75286;52.218;5.180;2024-02-23T12:04:14;99018.81;;;7.23;89.90
84924;BME280;75286;52.218;5.180;2024-02-23T12:06:40;99018.00;;;7.29;89.98
84924;BME280;75286;52.218;5.180;2024-02-23T12:09:07;99023.66;;;7.44;90.30
84924;BME280;75286;52.218;5.180;2024-02-23T12:11:33;99016.25;;;7.61;90.26
84924;BME280;75286;52.218;5.180;2024-02-23T12:14:00;99024.25;;;7.78;88.93
84924;BME280;75286;52.218;5.180;2024-02-23T12:16:27;99017.97;;;7.74;87.98
84924;BME280;75286;52.218;5.180;2024-02-23T12:18:53;99038.31;;;7.82;87.95
84924;BME280;75286;52.218;5.180;2024-02-23T12:21:20;99022.91;;;7.75;87.89
84924;BME280;75286;52.218;5.180;2024-02-23T12:23:48;99022.34;;;7.67;87.07
84924;BME280;75286;52.218;5.180;2024-02-23T12:26:15;99026.75;;;7.60;86.61
84924;BME280;75286;52.218;5.180;2024-02-23T12:28:41;99023.78;;;7.56;87.38
84924;BME280;75286;52.218;5.180;2024-02-23T12:31:07;99037.81;;;7.60;87.56
84924;BME280;75286;52.218;5.180;2024-02-23T12:33:34;99044.97;;;7.58;87.94
84924;BME280;75286;52.218;5.180;2024-02-23T12:36:00;99040.34;;;7.67;87.63
84924;BME280;75286;52.218;5.180;2024-02-23T12:38:26;99037.94;;;8.03;87.57
84924;BME280;75286;52.218;5.180;2024-02-23T12:40:52;99035.38;;;8.35;85.49
84924;BME280;75286;52.218;5.180;2024-02-23T12:43:18;99027.41;;;8.61;85.13
84924;BME280;75286;52.218;5.180;2024-02-23T12:45:46;99039.66;;;9.02;83.29
84924;BME280;75286;52.218;5.180;2024-02-23T12:48:14;99031.34;;;9.00;82.38
84924;BME280;75286;52.218;5.180;2024-02-23T12:50:40;99055.00;;;8.97;81.37
84924;BME280;75286;52.218;5.180;2024-02-23T12:53:05;99051.03;;;9.13;81.63
84924;BME280;75286;52.218;5.180;2024-02-23T12:55:31;99057.13;;;9.00;80.99
84924;BME280;75286;52.218;5.180;2024-02-23T12:57:56;99038.94;;;8.77;81.42
84924;BME280;75286;52.218;5.180;2024-02-23T13:00:22;99057.72;;;8.59;81.71
84924;BME280;75286;52.218;5.180;2024-02-23T13:02:47;99060.19;;;8.47;82.45
84924;BME280;75286;52.218;5.180;2024-02-23T13:05:12;99050.84;;;8.28;82.71
84924;BME280;75286;52.218;5.180;2024-02-23T13:07:38;99048.31;;;8.21;83.13